sensor_id;sensor_type;location;lat;lon;timestamp;pressure;altitude;pressure_sealevel;temperature;humidity
74594;BME280;63097;51.872;4.460;2023-04-15T00:01:30;100953.72;;;9.96;61.71
74594;BME280;63097;51.872;4.460;2023-04-15T00:03:55;100952.47;;;10.03;61.51
74594;BME280;63097;51.872;4.460;2023-04-15T00:06:21;100949.00;;;9.96;61.52
74594;BME280;63097;51.872;4.460;2023-04-15T00:08:47;100947.81;;;9.92;61.44
74594;BME280;63097;51.872;4.460;2023-04-15T00:11:13;100947.56;;;9.94;61.22
74594;BME280;63097;51.872;4.460;2023-04-15T00:13:38;100957.38;;;9.85;61.34
74594;BME280;63097;51.872;4.460;2023-04-15T00:16:05;100949.66;;;9.87;61.60
74594;BME280;63097;51.872;4.460;2023-04-15T00:18:31;100955.41;;;9.85;61.45
74594;BME280;63097;51.872;4.460;2023-04-15T00:20:56;100952.03;;;9.83;61.87
74594;BME280;63097;51.872;4.460;2023-04-15T00:23:21;100958.94;;;9.81;61.94
74594;BME280;63097;51.872;4.460;2023-04-15T00:25:47;100960.63;;;9.82;62.15
74594;BME280;63097;51.872;4.460;2023-04-15T00:28:12;100954.13;;;9.76;62.30
74594;BME280;63097;51.872;4.460;2023-04-15T00:30:37;100961.97;;;9.79;61.96
74594;BME280;63097;51.872;4.460;2023-04-15T00:33:03;100968.16;;;9.70;62.42
74594;BME280;63097;51.872;4.460;2023-04-15T00:35:28;100969.38;;;9.62;62.93
74594;BME280;63097;51.872;4.460;2023-04-15T00:37:54;100965.88;;;9.55;62.64
74594;BME280;63097;51.872;4.460;2023-04-15T00:40:20;100954.66;;;9.50;62.80
74594;BME280;63097;51.872;4.460;2023-04-15T00:42:46;100958.75;;;9.48;62.53
74594;BME280;63097;51.872;4.460;2023-04-15T00:45:11;100955.63;;;9.44;62.94
74594;BME280;63097;51.872;4.460;2023-04-15T00:47:38;100960.22;;;9.39;63.07
74594;BME280;63097;51.872;4.460;2023-04-15T00:50:05;100969.03;;;9.24;63.51
74594;BME280;63097;51.872;4.460;2023-04-15T00:52:31;100963.59;;;9.29;63.52
74594;BME280;63097;51.872;4.460;2023-04-15T00:54:56;100957.44;;;9.27;63.51
74594;BME280;63097;51.872;4.460;2023-04-15T00:57:21;100950.69;;;9.11;63.65
74594;BME280;63097;51.872;4.460;2023-04-15T00:59:47;100963.00;;;9.16;63.99
74594;BME280;63097;51.872;4.460;2023-04-15T01:02:13;100957.66;;;9.14;63.98
74594;BME280;63097;51.872;4.460;2023-04-15T01:04:38;100956.97;;;9.19;63.66
74594;BME280;63097;51.872;4.460;2023-04-15T01:07:04;100963.47;;;9.12;64.16
74594;BME280;63097;51.872;4.460;2023-04-15T01:09:29;100959.75;;;9.19;63.43
74594;BME280;63097;51.872;4.460;2023-04-15T01:11:55;100957.31;;;9.10;64.01
74594;BME280;63097;51.872;4.460;2023-04-15T01:14:20;100957.19;;;9.05;63.96
74594;BME280;63097;51.872;4.460;2023-04-15T01:16:45;100964.56;;;9.00;63.83
74594;BME280;63097;51.872;4.460;2023-04-15T01:19:13;100965.88;;;9.09;64.14
74594;BME280;63097;51.872;4.460;2023-04-15T01:21:40;100964.31;;;9.01;63.89
74594;BME280;63097;51.872;4.460;2023-04-15T01:24:09;100965.66;;;8.99;64.65
74594;BME280;63097;51.872;4.460;2023-04-15T01:26:39;100959.59;;;9.02;63.86
74594;BME280;63097;51.872;4.460;2023-04-15T01:29:05;100963.81;;;8.93;64.21
74594;BME280;63097;51.872;4.460;2023-04-15T01:31:30;100965.75;;;8.92;64.43
74594;BME280;63097;51.872;4.460;2023-04-15T01:33:55;100955.84;;;8.96;64.51
74594;BME280;63097;51.872;4.460;2023-04-15T01:36:21;100964.44;;;8.95;64.16
74594;BME280;63097;51.872;4.460;2023-04-15T01:38:46;100962.47;;;8.95;64.58
74594;BME280;63097;51.872;4.460;2023-04-15T01:41:12;100957.78;;;8.84;65.22
74594;BME280;63097;51.872;4.460;2023-04-15T01:43:38;100959.94;;;8.82;65.88
74594;BME280;63097;51.872;4.460;2023-04-15T01:46:03;100955.09;;;8.78;65.89
74594;BME280;63097;51.872;4.460;2023-04-15T01:48:29;100960.16;;;8.69;66.38
74594;BME280;63097;51.872;4.460;2023-04-15T01:50:54;100964.97;;;8.62;66.51
74594;BME280;63097;51.872;4.460;2023-04-15T01:53:20;100963.06;;;8.74;66.19
74594;BME280;63097;51.872;4.460;2023-04-15T01:55:45;100964.81;;;8.57;66.36
74594;BME280;63097;51.872;4.460;2023-04-15T01:58:10;100965.31;;;8.54;67.03
74594;BME280;63097;51.872;4.460;2023-04-15T02:00:36;100961.66;;;8.42;67.41
74594;BME280;63097;51.872;4.460;2023-04-15T02:03:01;100970.03;;;8.65;66.82
74594;BME280;63097;51.872;4.460;2023-04-15T02:05:26;100967.69;;;8.51;66.91
74594;BME280;63097;51.872;4.460;2023-04-15T02:07:52;100974.41;;;8.43;67.21
74594;BME280;63097;51.872;4.460;2023-04-15T02:10:17;100971.66;;;8.43;67.39
74594;BME280;63097;51.872;4.460;2023-04-15T02:12:42;100970.44;;;8.39;66.90
74594;BME280;63097;51.872;4.460;2023-04-15T02:15:08;100970.06;;;8.36;67.65
74594;BME280;63097;51.872;4.460;2023-04-15T02:17:34;100969.91;;;8.31;68.09
74594;BME280;63097;51.872;4.460;2023-04-15T02:19:59;100972.69;;;8.31;67.54
74594;BME280;63097;51.872;4.460;2023-04-15T02:22:25;100968.09;;;8.25;67.65
74594;BME280;63097;51.872;4.460;2023-04-15T02:24:50;100978.72;;;8.28;67.82
74594;BME280;63097;51.872;4.460;2023-04-15T02:27:16;100986.63;;;8.24;68.24
74594;BME280;63097;51.872;4.460;2023-04-15T02:29:43;100982.63;;;8.20;68.88
74594;BME280;63097;51.872;4.460;2023-04-15T02:32:08;100999.31;;;8.13;68.60
74594;BME280;63097;51.872;4.460;2023-04-15T02:34:33;101001.66;;;8.17;68.66
74594;BME280;63097;51.872;4.460;2023-04-15T02:36:58;101001.47;;;8.11;68.80
74594;BME280;63097;51.872;4.460;2023-04-15T02:39:24;101005.56;;;8.09;68.84
74594;BME280;63097;51.872;4.460;2023-04-15T02:41:49;101005.56;;;8.09;68.83
74594;BME280;63097;51.872;4.460;2023-04-15T02:44:14;101011.78;;;8.04;69.43
74594;BME280;63097;51.872;4.460;2023-04-15T02:46:40;101011.28;;;7.96;69.63
74594;BME280;63097;51.872;4.460;2023-04-15T02:49:05;101017.44;;;7.98;69.67
74594;BME280;63097;51.872;4.460;2023-04-15T02:51:30;101019.25;;;8.04;69.31
74594;BME280;63097;51.872;4.460;2023-04-15T02:53:56;101011.66;;;7.99;69.71
74594;BME280;63097;51.872;4.460;2023-04-15T02:56:21;101018.66;;;8.02;69.69
74594;BME280;63097;51.872;4.460;2023-04-15T02:58:46;101023.97;;;8.03;69.76
74594;BME280;63097;51.872;4.460;2023-04-15T03:01:11;101018.72;;;7.95;69.91
74594;BME280;63097;51.872;4.460;2023-04-15T03:03:37;101022.59;;;7.94;70.39
74594;BME280;63097;51.872;4.460;2023-04-15T03:06:02;101025.56;;;7.93;70.79
74594;BME280;63097;51.872;4.460;2023-04-15T03:08:27;101024.50;;;7.94;71.17
74594;BME280;63097;51.872;4.460;2023-04-15T03:10:53;101027.91;;;7.96;71.13
74594;BME280;63097;51.872;4.460;2023-04-15T03:13:18;101032.59;;;7.95;70.87
74594;BME280;63097;51.872;4.460;2023-04-15T03:15:45;101028.50;;;7.98;71.03
74594;BME280;63097;51.872;4.460;2023-04-15T03:18:11;101039.25;;;8.06;70.91
74594;BME280;63097;51.872;4.460;2023-04-15T03:20:36;101040.66;;;7.97;71.57
74594;BME280;63097;51.872;4.460;2023-04-15T03:23:02;101046.19;;;7.97;71.68
74594;BME280;63097;51.872;4.460;2023-04-15T03:25:27;101044.91;;;7.99;71.58
74594;BME280;63097;51.872;4.460;2023-04-15T03:27:52;101041.38;;;7.92;71.62
74594;BME280;63097;51.872;4.460;2023-04-15T03:30:18;101046.38;;;8.02;71.49
74594;BME280;63097;51.872;4.460;2023-04-15T03:32:43;101048.28;;;8.01;71.51
74594;BME280;63097;51.872;4.460;2023-04-15T03:35:08;101059.81;;;7.98;71.79
74594;BME280;63097;51.872;4.460;2023-04-15T03:37:34;101051.81;;;8.08;71.55
74594;BME280;63097;51.872;4.460;2023-04-15T03:39:59;101059.91;;;8.10;71.21
74594;BME280;63097;51.872;4.460;2023-04-15T03:42:24;101058.03;;;8.04;71.50
74594;BME280;63097;51.872;4.460;2023-04-15T03:44:50;101062.03;;;8.08;70.99
74594;BME280;63097;51.872;4.460;2023-04-15T03:47:16;101064.66;;;8.03;71.49
74594;BME280;63097;51.872;4.460;2023-04-15T03:49:41;101069.69;;;8.12;70.82
74594;BME280;63097;51.872;4.460;2023-04-15T03:52:06;101077.59;;;8.09;71.16
74594;BME280;63097;51.872;4.460;2023-04-15T03:54:32;101077.13;;;7.94;71.52
74594;BME280;63097;51.872;4.460;2023-04-15T03:56:57;101088.22;;;7.94;71.96
74594;BME280;63097;51.872;4.460;2023-04-15T03:59:22;101090.22;;;7.87;72.05
74594;BME280;63097;51.872;4.460;2023-04-15T04:01:48;101090.06;;;8.00;71.35
74594;BME280;63097;51.872;4.460;2023-04-15T04:04:13;101091.59;;;7.96;71.37
74594;BME280;63097;51.872;4.460;2023-04-15T04:06:38;101096.75;;;7.92;71.33
74594;BME280;63097;51.872;4.460;2023-04-15T04:09:04;101096.81;;;7.86;71.95
74594;BME280;63097;51.872;4.460;2023-04-15T04:11:29;101098.38;;;7.82;72.43
74594;BME280;63097;51.872;4.460;2023-04-15T04:13:54;101099.34;;;7.87;71.28
74594;BME280;63097;51.872;4.460;2023-04-15T04:16:20;101100.59;;;7.91;71.39
74594;BME280;63097;51.872;4.460;2023-04-15T04:18:45;101106.59;;;7.88;71.73
74594;BME280;63097;51.872;4.460;2023-04-15T04:21:10;101108.50;;;7.88;71.87
74594;BME280;63097;51.872;4.460;2023-04-15T04:23:36;101108.34;;;7.83;71.42
74594;BME280;63097;51.872;4.460;2023-04-15T04:26:01;101114.50;;;7.85;71.65
74594;BME280;63097;51.872;4.460;2023-04-15T04:28:26;101116.03;;;7.81;71.63
74594;BME280;63097;51.872;4.460;2023-04-15T04:30:52;101120.06;;;7.85;71.72
74594;BME280;63097;51.872;4.460;2023-04-15T04:33:17;101128.03;;;7.75;72.33
74594;BME280;63097;51.872;4.460;2023-04-15T04:35:43;101124.59;;;7.79;72.08
74594;BME280;63097;51.872;4.460;2023-04-15T04:38:08;101134.03;;;7.72;72.12
74594;BME280;63097;51.872;4.460;2023-04-15T04:40:33;101136.16;;;7.70;72.66
74594;BME280;63097;51.872;4.460;2023-04-15T04:42:59;101146.72;;;7.55;72.97
74594;BME280;63097;51.872;4.460;2023-04-15T04:45:24;101149.09;;;7.51;73.23
74594;BME280;63097;51.872;4.460;2023-04-15T04:47:49;101154.03;;;7.49;73.52
74594;BME280;63097;51.872;4.460;2023-04-15T04:50:15;101162.78;;;7.46;73.89
74594;BME280;63097;51.872;4.460;2023-04-15T04:52:40;101157.91;;;7.42;73.87
74594;BME280;63097;51.872;4.460;2023-04-15T04:55:05;101174.56;;;7.35;73.71
74594;BME280;63097;51.872;4.460;2023-04-15T04:57:31;101177.91;;;7.44;73.80
74594;BME280;63097;51.872;4.460;2023-04-15T04:59:56;101173.28;;;7.38;73.91
74594;BME280;63097;51.872;4.460;2023-04-15T05:02:21;101183.44;;;7.44;73.80
74594;BME280;63097;51.872;4.460;2023-04-15T05:04:47;101181.00;;;7.29;74.54
74594;BME280;63097;51.872;4.460;2023-04-15T05:07:12;101181.19;;;7.34;74.34
74594;BME280;63097;51.872;4.460;2023-04-15T05:09:37;101192.66;;;7.38;74.68
74594;BME280;63097;51.872;4.460;2023-04-15T05:12:03;101196.53;;;7.30;74.49
74594;BME280;63097;51.872;4.460;2023-04-15T05:14:28;101198.81;;;7.40;74.24
74594;BME280;63097;51.872;4.460;2023-04-15T05:16:54;101206.69;;;7.36;74.97
74594;BME280;63097;51.872;4.460;2023-04-15T05:19:19;101209.44;;;7.43;74.39
74594;BME280;63097;51.872;4.460;2023-04-15T05:21:45;101214.88;;;7.56;74.34
74594;BME280;63097;51.872;4.460;2023-04-15T05:24:10;101214.72;;;7.51;74.53
74594;BME280;63097;51.872;4.460;2023-04-15T05:26:35;101207.25;;;7.51;74.46
74594;BME280;63097;51.872;4.460;2023-04-15T05:29:00;101220.59;;;7.61;74.01
74594;BME280;63097;51.872;4.460;2023-04-15T05:31:26;101219.69;;;7.67;73.94
74594;BME280;63097;51.872;4.460;2023-04-15T05:33:51;101228.41;;;7.70;73.79
74594;BME280;63097;51.872;4.460;2023-04-15T05:36:16;101225.41;;;7.72;73.97
74594;BME280;63097;51.872;4.460;2023-04-15T05:38:42;101241.75;;;7.80;73.76
74594;BME280;63097;51.872;4.460;2023-04-15T05:41:07;101243.59;;;7.86;74.02
74594;BME280;63097;51.872;4.460;2023-04-15T05:43:33;101243.50;;;7.99;73.34
74594;BME280;63097;51.872;4.460;2023-04-15T05:45:58;101254.56;;;7.99;73.20
74594;BME280;63097;51.872;4.460;2023-04-15T05:48:23;101252.94;;;7.91;73.73
74594;BME280;63097;51.872;4.460;2023-04-15T05:50:49;101261.81;;;8.00;73.76
74594;BME280;63097;51.872;4.460;2023-04-15T05:53:14;101260.28;;;8.04;73.24
74594;BME280;63097;51.872;4.460;2023-04-15T05:55:39;101271.94;;;8.12;73.60
74594;BME280;63097;51.872;4.460;2023-04-15T05:58:05;101271.19;;;8.24;72.46
74594;BME280;63097;51.872;4.460;2023-04-15T06:00:30;101274.16;;;8.53;71.32
74594;BME280;63097;51.872;4.460;2023-04-15T06:02:56;101289.19;;;8.39;72.27
74594;BME280;63097;51.872;4.460;2023-04-15T06:05:21;101289.47;;;8.56;71.59
74594;BME280;63097;51.872;4.460;2023-04-15T06:07:46;101294.34;;;8.60;71.47
74594;BME280;63097;51.872;4.460;2023-04-15T06:10:11;101293.97;;;8.75;70.83
74594;BME280;63097;51.872;4.460;2023-04-15T06:12:37;101308.50;;;8.70;71.56
74594;BME280;63097;51.872;4.460;2023-04-15T06:15:02;101307.22;;;8.91;70.68
74594;BME280;63097;51.872;4.460;2023-04-15T06:17:28;101318.53;;;9.07;70.45
74594;BME280;63097;51.872;4.460;2023-04-15T06:19:53;101325.00;;;9.01;70.03
74594;BME280;63097;51.872;4.460;2023-04-15T06:22:18;101334.44;;;9.19;69.77
74594;BME280;63097;51.872;4.460;2023-04-15T06:24:44;101332.66;;;9.24;69.47
74594;BME280;63097;51.872;4.460;2023-04-15T06:27:09;101331.88;;;9.35;69.37
74594;BME280;63097;51.872;4.460;2023-04-15T06:29:34;101338.94;;;9.49;68.44
74594;BME280;63097;51.872;4.460;2023-04-15T06:32:00;101347.19;;;9.38;68.81
74594;BME280;63097;51.872;4.460;2023-04-15T06:34:25;101347.78;;;9.76;67.59
74594;BME280;63097;51.872;4.460;2023-04-15T06:36:50;101355.91;;;9.89;67.01
74594;BME280;63097;51.872;4.460;2023-04-15T06:39:16;101361.06;;;9.85;67.52
74594;BME280;63097;51.872;4.460;2023-04-15T06:41:41;101362.88;;;9.80;67.91
74594;BME280;63097;51.872;4.460;2023-04-15T06:44:06;101365.84;;;9.96;67.54
74594;BME280;63097;51.872;4.460;2023-04-15T06:46:32;101379.53;;;9.98;67.77
74594;BME280;63097;51.872;4.460;2023-04-15T06:48:57;101387.59;;;10.18;66.65
74594;BME280;63097;51.872;4.460;2023-04-15T06:51:22;101379.31;;;10.11;66.72
74594;BME280;63097;51.872;4.460;2023-04-15T06:53:48;101389.38;;;10.12;66.75
74594;BME280;63097;51.872;4.460;2023-04-15T06:56:13;101389.19;;;10.25;66.74
74594;BME280;63097;51.872;4.460;2023-04-15T06:58:38;101395.34;;;10.27;66.06
74594;BME280;63097;51.872;4.460;2023-04-15T07:01:04;101393.03;;;10.24;66.57
74594;BME280;63097;51.872;4.460;2023-04-15T07:03:29;101403.94;;;10.37;66.13
74594;BME280;63097;51.872;4.460;2023-04-15T07:05:55;101405.50;;;10.33;65.80
74594;BME280;63097;51.872;4.460;2023-04-15T07:08:29;101408.69;;;10.48;65.58
74594;BME280;63097;51.872;4.460;2023-04-15T07:10:54;101403.78;;;10.62;65.50
74594;BME280;63097;51.872;4.460;2023-04-15T07:13:19;101412.38;;;10.72;65.14
74594;BME280;63097;51.872;4.460;2023-04-15T07:15:45;101412.13;;;10.73;64.86
74594;BME280;63097;51.872;4.460;2023-04-15T07:18:10;101412.88;;;10.92;64.77
74594;BME280;63097;51.872;4.460;2023-04-15T07:20:35;101405.59;;;11.02;64.21
74594;BME280;63097;51.872;4.460;2023-04-15T07:23:01;101412.63;;;11.05;63.90
74594;BME280;63097;51.872;4.460;2023-04-15T07:25:26;101427.63;;;11.27;63.68
74594;BME280;63097;51.872;4.460;2023-04-15T07:27:52;101425.09;;;11.26;63.10
74594;BME280;63097;51.872;4.460;2023-04-15T07:30:18;101423.25;;;11.66;61.58
74594;BME280;63097;51.872;4.460;2023-04-15T07:32:43;101426.78;;;11.27;62.61
74594;BME280;63097;51.872;4.460;2023-04-15T07:35:08;101435.28;;;11.20;62.41
74594;BME280;63097;51.872;4.460;2023-04-15T07:37:34;101443.00;;;11.53;62.23
74594;BME280;63097;51.872;4.460;2023-04-15T07:39:59;101448.44;;;11.71;63.05
74594;BME280;63097;51.872;4.460;2023-04-15T07:42:24;101436.38;;;11.93;61.28
74594;BME280;63097;51.872;4.460;2023-04-15T07:44:50;101446.53;;;11.99;61.67
74594;BME280;63097;51.872;4.460;2023-04-15T07:47:16;101451.47;;;12.09;61.31
74594;BME280;63097;51.872;4.460;2023-04-15T07:49:41;101452.00;;;12.34;60.86
74594;BME280;63097;51.872;4.460;2023-04-15T07:52:06;101460.66;;;12.66;59.96
74594;BME280;63097;51.872;4.460;2023-04-15T07:54:32;101467.13;;;12.38;60.34
74594;BME280;63097;51.872;4.460;2023-04-15T07:56:57;101472.16;;;12.69;59.58
74594;BME280;63097;51.872;4.460;2023-04-15T07:59:22;101479.44;;;12.54;59.75
74594;BME280;63097;51.872;4.460;2023-04-15T08:01:47;101482.41;;;12.64;59.49
74594;BME280;63097;51.872;4.460;2023-04-15T08:04:13;101487.25;;;12.85;59.49
74594;BME280;63097;51.872;4.460;2023-04-15T08:06:38;101494.13;;;12.94;58.76
74594;BME280;63097;51.872;4.460;2023-04-15T08:09:04;101501.16;;;13.13;58.55
74594;BME280;63097;51.872;4.460;2023-04-15T08:11:29;101492.78;;;12.96;59.14
74594;BME280;63097;51.872;4.460;2023-04-15T08:13:55;101496.28;;;13.37;57.66
74594;BME280;63097;51.872;4.460;2023-04-15T08:16:22;101508.63;;;13.07;58.58
74594;BME280;63097;51.872;4.460;2023-04-15T08:18:49;101498.47;;;13.35;58.07
74594;BME280;63097;51.872;4.460;2023-04-15T08:21:15;101516.56;;;13.49;58.78
74594;BME280;63097;51.872;4.460;2023-04-15T08:23:40;101524.28;;;13.58;57.69
74594;BME280;63097;51.872;4.460;2023-04-15T08:26:07;101526.75;;;13.55;58.06
74594;BME280;63097;51.872;4.460;2023-04-15T08:28:33;101526.88;;;13.65;57.44
74594;BME280;63097;51.872;4.460;2023-04-15T08:30:58;101526.59;;;13.83;57.27
74594;BME280;63097;51.872;4.460;2023-04-15T08:33:24;101540.00;;;13.64;57.77
74594;BME280;63097;51.872;4.460;2023-04-15T08:35:49;101538.94;;;13.32;58.88
74594;BME280;63097;51.872;4.460;2023-04-15T08:38:15;101548.22;;;13.71;57.53
74594;BME280;63097;51.872;4.460;2023-04-15T08:40:42;101550.69;;;13.67;57.78
74594;BME280;63097;51.872;4.460;2023-04-15T08:43:22;101554.84;;;13.65;57.61
74594;BME280;63097;51.872;4.460;2023-04-15T08:45:49;101555.88;;;14.13;56.55
74594;BME280;63097;51.872;4.460;2023-04-15T08:48:14;101555.59;;;13.77;57.25
74594;BME280;63097;51.872;4.460;2023-04-15T08:50:41;101562.41;;;14.02;57.03
74594;BME280;63097;51.872;4.460;2023-04-15T08:53:07;101568.03;;;13.86;57.19
74594;BME280;63097;51.872;4.460;2023-04-15T08:55:35;101563.41;;;14.13;56.06
74594;BME280;63097;51.872;4.460;2023-04-15T08:58:01;101564.97;;;14.26;56.44
74594;BME280;63097;51.872;4.460;2023-04-15T09:00:27;101569.88;;;14.57;55.17
74594;BME280;63097;51.872;4.460;2023-04-15T09:02:54;101578.50;;;14.77;55.07
74594;BME280;63097;51.872;4.460;2023-04-15T09:05:19;101587.63;;;14.67;54.80
74594;BME280;63097;51.872;4.460;2023-04-15T09:07:45;101592.88;;;14.85;54.30
74594;BME280;63097;51.872;4.460;2023-04-15T09:10:10;101589.41;;;14.52;55.35
74594;BME280;63097;51.872;4.460;2023-04-15T09:12:36;101593.63;;;14.54;54.97
74594;BME280;63097;51.872;4.460;2023-04-15T09:15:02;101593.75;;;14.86;54.66
74594;BME280;63097;51.872;4.460;2023-04-15T09:17:32;101592.44;;;14.93;53.73
74594;BME280;63097;51.872;4.460;2023-04-15T09:20:08;101597.78;;;15.22;53.33
74594;BME280;63097;51.872;4.460;2023-04-15T09:22:33;101607.16;;;15.37;53.63
74594;BME280;63097;51.872;4.460;2023-04-15T09:24:59;101608.81;;;15.06;53.96
74594;BME280;63097;51.872;4.460;2023-04-15T09:27:24;101614.75;;;15.10;51.19
74594;BME280;63097;51.872;4.460;2023-04-15T09:29:49;101618.63;;;14.82;52.55
74594;BME280;63097;51.872;4.460;2023-04-15T09:32:15;101629.63;;;15.10;50.51
74594;BME280;63097;51.872;4.460;2023-04-15T09:34:41;101627.41;;;15.13;50.58
74594;BME280;63097;51.872;4.460;2023-04-15T09:37:06;101633.72;;;15.30;48.42
74594;BME280;63097;51.872;4.460;2023-04-15T09:39:51;101632.91;;;15.07;49.94
74594;BME280;63097;51.872;4.460;2023-04-15T09:42:16;101639.13;;;15.36;50.48
74594;BME280;63097;51.872;4.460;2023-04-15T09:44:42;101633.31;;;15.69;49.24
74594;BME280;63097;51.872;4.460;2023-04-15T09:47:07;101641.47;;;15.76;49.26
74594;BME280;63097;51.872;4.460;2023-04-15T09:49:33;101647.84;;;16.40;44.90
74594;BME280;63097;51.872;4.460;2023-04-15T09:52:01;101656.41;;;16.18;42.64
74594;BME280;63097;51.872;4.460;2023-04-15T09:54:37;101655.06;;;15.89;42.98
74594;BME280;63097;51.872;4.460;2023-04-15T09:57:07;101658.94;;;16.20;42.83
74594;BME280;63097;51.872;4.460;2023-04-15T09:59:32;101652.97;;;16.48;44.20
74594;BME280;63097;51.872;4.460;2023-04-15T10:01:58;101656.97;;;16.57;44.19
74594;BME280;63097;51.872;4.460;2023-04-15T10:04:24;101668.47;;;16.55;44.69
74594;BME280;63097;51.872;4.460;2023-04-15T10:06:51;101661.25;;;16.79;45.69
74594;BME280;63097;51.872;4.460;2023-04-15T10:09:16;101662.97;;;16.75;45.14
74594;BME280;63097;51.872;4.460;2023-04-15T10:11:42;101667.78;;;16.90;45.82
74594;BME280;63097;51.872;4.460;2023-04-15T10:14:08;101666.91;;;17.61;42.47
74594;BME280;63097;51.872;4.460;2023-04-15T10:16:35;101656.16;;;17.43;42.03
74594;BME280;63097;51.872;4.460;2023-04-15T10:19:03;101669.34;;;17.38;43.32
74594;BME280;63097;51.872;4.460;2023-04-15T10:21:30;101666.31;;;17.69;42.24
74594;BME280;63097;51.872;4.460;2023-04-15T10:23:56;101673.38;;;17.87;41.64
74594;BME280;63097;51.872;4.460;2023-04-15T10:26:23;101677.31;;;18.16;41.40
74594;BME280;63097;51.872;4.460;2023-04-15T10:28:49;101686.88;;;17.95;41.50
74594;BME280;63097;51.872;4.460;2023-04-15T10:31:15;101687.44;;;17.97;40.70
74594;BME280;63097;51.872;4.460;2023-04-15T10:33:42;101690.28;;;18.07;40.92
74594;BME280;63097;51.872;4.460;2023-04-15T10:36:08;101695.91;;;18.07;39.04
74594;BME280;63097;51.872;4.460;2023-04-15T10:38:36;101699.56;;;17.92;38.25
74594;BME280;63097;51.872;4.460;2023-04-15T10:43:36;101703.94;;;17.33;40.56
74594;BME280;63097;51.872;4.460;2023-04-15T10:46:04;101702.94;;;17.79;39.47
74594;BME280;63097;51.872;4.460;2023-04-15T10:48:29;101695.88;;;18.02;39.25
74594;BME280;63097;51.872;4.460;2023-04-15T10:50:56;101708.88;;;17.98;39.89
74594;BME280;63097;51.872;4.460;2023-04-15T10:53:28;101709.03;;;18.87;37.90
74594;BME280;63097;51.872;4.460;2023-04-15T10:55:54;101710.19;;;18.76;37.64
74594;BME280;63097;51.872;4.460;2023-04-15T10:58:22;101711.22;;;19.05;35.92
74594;BME280;63097;51.872;4.460;2023-04-15T11:00:52;101721.03;;;19.18;36.49
74594;BME280;63097;51.872;4.460;2023-04-15T11:03:36;101717.78;;;18.75;39.30
74594;BME280;63097;51.872;4.460;2023-04-15T11:06:02;101713.47;;;19.08;39.57
74594;BME280;63097;51.872;4.460;2023-04-15T11:08:53;101712.38;;;19.58;36.50
74594;BME280;63097;51.872;4.460;2023-04-15T11:11:18;101731.25;;;20.06;35.57
74594;BME280;63097;51.872;4.460;2023-04-15T11:13:48;101729.16;;;19.83;37.08
74594;BME280;63097;51.872;4.460;2023-04-15T11:16:14;101722.06;;;19.42;37.64
74594;BME280;63097;51.872;4.460;2023-04-15T11:18:40;101731.19;;;20.11;36.68
74594;BME280;63097;51.872;4.460;2023-04-15T11:21:06;101740.03;;;19.61;38.60
74594;BME280;63097;51.872;4.460;2023-04-15T11:26:01;101732.88;;;20.51;36.21
74594;BME280;63097;51.872;4.460;2023-04-15T11:28:28;101743.94;;;21.23;34.54
74594;BME280;63097;51.872;4.460;2023-04-15T11:30:54;101741.13;;;20.42;36.28
74594;BME280;63097;51.872;4.460;2023-04-15T11:33:21;101749.03;;;20.07;35.92
74594;BME280;63097;51.872;4.460;2023-04-15T11:35:47;101743.34;;;20.12;36.79
74594;BME280;63097;51.872;4.460;2023-04-15T11:38:13;101756.56;;;20.83;35.66
74594;BME280;63097;51.872;4.460;2023-04-15T11:40:39;101747.63;;;20.43;34.42
74594;BME280;63097;51.872;4.460;2023-04-15T11:43:12;101749.63;;;20.03;33.85
74594;BME280;63097;51.872;4.460;2023-04-15T11:48:16;101763.13;;;21.08;32.37
74594;BME280;63097;51.872;4.460;2023-04-15T11:50:42;101752.66;;;20.12;33.40
74594;BME280;63097;51.872;4.460;2023-04-15T11:53:09;101768.28;;;20.95;33.04
74594;BME280;63097;51.872;4.460;2023-04-15T11:55:46;101763.06;;;20.55;35.25
74594;BME280;63097;51.872;4.460;2023-04-15T12:00:49;101753.78;;;20.50;36.21
74594;BME280;63097;51.872;4.460;2023-04-15T12:03:25;101761.69;;;22.45;32.86
74594;BME280;63097;51.872;4.460;2023-04-15T12:06:20;101770.88;;;20.92;34.28
74594;BME280;63097;51.872;4.460;2023-04-15T12:13:56;101782.19;;;19.91;34.86
74594;BME280;63097;51.872;4.460;2023-04-15T12:16:23;101782.00;;;19.14;37.39
74594;BME280;63097;51.872;4.460;2023-04-15T12:18:53;101781.59;;;21.00;34.23
74594;BME280;63097;51.872;4.460;2023-04-15T12:21:19;101780.47;;;20.96;35.17
74594;BME280;63097;51.872;4.460;2023-04-15T12:23:48;101793.22;;;21.46;33.86
74594;BME280;63097;51.872;4.460;2023-04-15T12:26:14;101796.47;;;21.76;33.12
74594;BME280;63097;51.872;4.460;2023-04-15T12:28:42;101798.38;;;20.86;36.08
74594;BME280;63097;51.872;4.460;2023-04-15T12:31:09;101790.47;;;22.20;31.57
74594;BME280;63097;51.872;4.460;2023-04-15T12:33:35;101798.97;;;22.20;31.28
74594;BME280;63097;51.872;4.460;2023-04-15T12:36:00;101803.63;;;19.48;35.76
74594;BME280;63097;51.872;4.460;2023-04-15T12:38:26;101801.09;;;21.25;33.59
74594;BME280;63097;51.872;4.460;2023-04-15T12:40:51;101808.50;;;21.45;34.61
74594;BME280;63097;51.872;4.460;2023-04-15T12:43:16;101813.50;;;19.94;36.42
74594;BME280;63097;51.872;4.460;2023-04-15T12:45:42;101813.31;;;18.92;38.92
74594;BME280;63097;51.872;4.460;2023-04-15T12:48:07;101821.41;;;19.97;37.51
74594;BME280;63097;51.872;4.460;2023-04-15T12:50:32;101813.09;;;19.67;37.12
74594;BME280;63097;51.872;4.460;2023-04-15T12:52:58;101824.88;;;18.35;40.06
74594;BME280;63097;51.872;4.460;2023-04-15T12:55:23;101831.25;;;17.75;42.07
74594;BME280;63097;51.872;4.460;2023-04-15T12:57:48;101836.56;;;17.15;43.24
74594;BME280;63097;51.872;4.460;2023-04-15T13:00:14;101843.66;;;17.23;43.16
74594;BME280;63097;51.872;4.460;2023-04-15T13:02:39;101836.84;;;16.40;45.73
74594;BME280;63097;51.872;4.460;2023-04-15T13:05:05;101849.94;;;16.30;45.79